Impacts TAF Board
For situational awareness. Not to be used for flight planning purposes.
IDs:

KMCO - Orlando Intl, FL, US

Issued at 2227 UTC 21 May 2022
Updated at 2233 UTC 21 May 2022
Potential Impact None Slight Moderate High
Time2153Z 21/23Z 22/00Z 22/01Z 22/02Z 22/03Z 22/04Z 22/05Z 22/06Z 22/07Z 22/08Z 22/09Z 22/10Z 22/11Z>>
Type OBS PRVL
  [TEMP]  
PRVL
  [TEMP]  
PRVL
  [TEMP]  
PRVL PRVL PRVL PRVL PRVL PRVL PRVL PRVL PRVL PRVL
VIS 10 >6
  [2]  
>6
  [5]  
>6
  [5]  
>6 >6 >6 >6 >6 >6 >6 >6 >6 >6
CIG 48 250
  [25]  
100
  [40]  
100
  [40]  
100 100 200 200 200 200 200 200 200 200
Cover OVC BKN
  [BKN]  
OVC
  [BKN]  
OVC
  [BKN]  
OVC OVC BKN BKN BKN BKN BKN BKN BKN BKN
FltCat VFR VFR
  [IFR]  
VFR
  [MVFR]  
VFR
  [MVFR]  
VFR VFR VFR VFR VFR VFR VFR VFR VFR VFR
WX TS VCTS
  [+TSRA]  
VCTS
  [TSRA]  
VCTS
  [TSRA]  
VCTS VCTS -- -- -- -- -- -- -- --
WDir 90 140
[VRB]
100
[100]
100
[100]
100 100 140 140 140 140 140 140 140 140
WSpd 16 10
  [15]  
10
  [10]  
10
  [10]  
10 10 7 7 7 7 7 7 7 7
WGst 26 15
  [35]  
--
  [--]  
--
  [--]  
-- -- -- -- -- -- -- -- -- --
WSHgt -- --
[--]
--
[--]
--
[--]
-- -- -- -- -- -- -- -- -- --
WSDir -- --
[--]
--
[--]
--
[--]
-- -- -- -- -- -- -- -- -- --
WSSpd -- --
[--]
--
[--]
--
[--]
-- -- -- -- -- -- -- -- -- --
R17/35
XWnd 16 6 10 10 10 10 4 4 4 4 4 4 4 4
XGst 26 9 0 0 -- -- -- -- -- -- -- -- -- --
R18/36
XWnd 16 6 10 10 10 10 4 4 4 4 4 4 4 4
XGst 26 9 0 0 -- -- -- -- -- -- -- -- -- --
Raw TAF
KMCO 212227Z 2122/2224 14010G15KT P6SM VCTS SCT030CB BKN250
  TEMPO 2122/2124 VRB15G35KT 2SM +TSRA BKN025CB
  FM220000 10010KT P6SM VCTS SCT040CB OVC100
  TEMPO 2200/2202 5SM TSRA BKN040CB
  FM220400 14007KT P6SM SCT120 BKN200
  FM221500 15006KT P6SM SCT035 SCT250
  FM221900 13009KT P6SM VCTS SCT040CB BKN150


Raw METAR
KMCO 212153Z 09016G26KT 10SM TS SCT027CB BKN048 OVC250 29/22 A3011 RMK AO2 PK WND 09026/2150 LTG DSNT ALQDS TSE14B18 SLP195 OCNL LTGICCG OHD-NE-SE TS OHD-NE-SE MOV N T02940222
KMCO 212118Z 10007KT 10SM TS SCT043CB BKN060 OVC250 32/23 A3011 RMK AO2 LTG DSNT SE TSE14B18 OCNL LTGIC SE TS SE MOV N T03220228
KMCO 212053Z VRB04KT 10SM SCT043 BKN055 OVC250 32/22 A3011 RMK AO2 LTG DSNT SE SLP194 T03220222 56020
KMCO 211953Z 17007KT 130V190 10SM FEW040 OVC250 33/23 A3012 RMK AO2 SLP198 T03330228

METAR Board
Radar Display
Forecast Discussion
For situational awareness. Not to be used for flight planning purposes.